Terminal Aerodrome Forecast
Issued by NWS

Home | Current Version | Previous Version | Text Only | Print | Product List | Glossary On
Versions: 1 2 3 4 5 6 7 8 9 10 11 12 13 14 15 16 17 18 19 20 21 22 23 24 25 26 27 28 29 30 31 32 33
043
FTUS46 KOTX 290526
TAFPUW
TAF
KPUW 290526Z 2906/3006 VRB05KT P6SM BKN080 BKN120 BKN200
     FM291500 18008KT P6SM FEW040 SCT150 BKN200
     FM292000 22007KT P6SM SCT080 BKN120 BKN200
     FM300400 12003KT P6SM OVC100=

USA.gov is the U.S. government's official web portal to all federal, state and local government web resources and services.